Time;durP1;ratioP1;P1;durP2;ratioP2;P2;SDS_P1;SDS_P2;PMS_P1;PMS_P2;Temp;Humidity;BMP_temperature;BMP_pressure;BME280_temperature;BME280_humidity;BME280_pressure;Samples;Min_cycle;Max_cycle;Signal;HPM_P1;HPM_P2
2022/06/27 00:01:33;;;;;;;1.93;1.43;;;;;;;18.06;100.00;101598.06;4982394;28;20200;-78
2022/06/27 00:03:58;;;;;;;1.80;1.70;;;;;;;17.90;100.00;101556.06;4984765;28;20193;-77
2022/06/27 00:06:23;;;;;;;2.43;1.77;;;;;;;18.61;100.00;101683.97;4984651;28;20525;-77
2022/06/27 00:08:49;;;;;;;2.77;2.20;;;;;;;18.64;100.00;101689.75;4985661;28;20185;-78
2022/06/27 00:11:17;;;;;;;2.63;2.40;;;;;;;17.92;100.00;101602.81;4983494;28;20189;-77
2022/06/27 00:13:42;;;;;;;2.33;2.13;;;;;;;17.57;100.00;101542.94;4985439;28;20637;-77
2022/06/27 00:16:08;;;;;;;2.37;2.10;;;;;;;17.71;100.00;101563.41;4983803;28;20510;-76
2022/06/27 00:18:33;;;;;;;5.60;2.67;;;;;;;17.71;100.00;101568.84;4984194;28;20193;-77
2022/06/27 00:20:59;;;;;;;3.50;2.87;;;;;;;18.54;100.00;101708.50;4985061;28;20240;-76
2022/06/27 00:23:24;;;;;;;3.00;2.67;;;;;;;17.31;100.00;101501.53;4977740;28;20200;-75
2022/06/27 00:25:50;;;;;;;2.53;2.33;;;;;;;18.20;100.00;101659.25;4981638;28;20677;-75
2022/06/27 00:28:15;;;;;;;2.57;2.37;;;;;;;18.53;100.00;101725.88;4987655;28;20201;-75
2022/06/27 00:30:41;;;;;;;2.97;2.67;;;;;;;16.78;100.00;101436.25;4985849;28;20655;-75
2022/06/27 00:33:07;;;;;;;2.67;2.47;;;;;;;17.72;100.00;101597.63;4987494;28;20209;-74
2022/06/27 00:35:32;;;;;;;3.20;2.90;;;;;;;18.36;100.00;101692.25;4986909;28;20457;-75
2022/06/27 00:37:58;;;;;;;3.40;3.10;;;;;;;17.39;100.00;101577.16;4985318;28;20209;-75
2022/06/27 00:40:23;;;;;;;3.07;2.83;;;;;;;17.78;100.00;101621.16;4988897;28;20252;-75
2022/06/27 00:42:48;;;;;;;4.27;3.20;;;;;;;18.36;100.00;101716.69;4987553;28;20273;-75
2022/06/27 00:45:14;;;;;;;2.97;2.60;;;;;;;18.36;100.00;101714.81;4984867;28;20663;-75
2022/06/27 00:47:39;;;;;;;3.03;2.83;;;;;;;17.41;100.00;101557.94;4988068;28;20735;-75
2022/06/27 00:50:06;;;;;;;2.90;2.70;;;;;;;17.87;100.00;101646.09;4987554;28;20191;-75
2022/06/27 00:52:32;;;;;;;4.63;3.23;;;;;;;18.08;100.00;101677.38;4986912;28;20678;-75
2022/06/27 00:54:58;;;;;;;3.53;3.23;;;;;;;17.51;100.00;101584.53;4987661;28;20534;-75
2022/06/27 00:57:23;;;;;;;3.50;3.00;;;;;;;18.28;100.00;101732.25;4987669;28;20193;-75
2022/06/27 00:59:49;;;;;;;5.37;4.23;;;;;;;17.88;100.00;101664.06;4981904;28;20201;-75
2022/06/27 01:02:14;;;;;;;3.57;3.27;;;;;;;18.27;100.00;101727.88;4987895;28;20190;-74
2022/06/27 01:04:40;;;;;;;6.50;4.00;;;;;;;17.91;100.00;101698.06;4982222;28;20260;-74
2022/06/27 01:07:07;;;;;;;3.53;3.23;;;;;;;18.20;100.00;101724.44;4981883;28;20356;-74
2022/06/27 01:09:34;;;;;;;3.87;2.83;;;;;;;18.02;100.00;101699.97;4985728;28;20185;-75
2022/06/27 01:11:59;;;;;;;5.20;3.37;;;;;;;17.65;100.00;101615.88;4982950;28;20449;-75
2022/06/27 01:14:25;;;;;;;3.30;3.10;;;;;;;18.36;100.00;101719.41;4981382;28;20476;-75
2022/06/27 01:16:50;;;;;;;3.43;3.13;;;;;;;18.33;100.00;101715.25;4985655;28;20630;-75
2022/06/27 01:19:17;;;;;;;2.83;2.63;;;;;;;17.38;100.00;101613.44;4983015;28;20197;-75
2022/06/27 01:21:51;;;;;;;3.20;2.90;;;;;;;17.56;100.00;101639.75;4982309;28;20272;-75
2022/06/27 01:24:21;;;;;;;3.77;3.37;;;;;;;17.51;100.00;101625.22;4981753;28;20810;-76
2022/06/27 01:26:48;;;;;;;3.10;2.80;;;;;;;18.23;100.00;101737.53;4984922;28;20457;-76
2022/06/27 01:29:14;;;;;;;4.43;3.13;;;;;;;17.73;100.00;101667.09;4981864;28;20494;-78
2022/06/27 01:31:40;;;;;;;3.67;3.33;;;;;;;18.15;100.00;101721.56;4983965;28;20456;-76
2022/06/27 01:34:07;;;;;;;3.67;3.20;;;;;;;17.52;100.00;101616.84;4983981;28;20503;-76
2022/06/27 01:36:42;;;;;;;3.03;2.80;;;;;;;17.38;100.00;101589.03;4983294;28;20456;-77
2022/06/27 01:39:10;;;;;;;3.60;3.30;;;;;;;17.35;100.00;101627.44;4980047;28;20436;-76
2022/06/27 01:41:37;;;;;;;3.30;3.00;;;;;;;17.87;100.00;101702.25;4983620;28;20535;-76
2022/06/27 01:44:03;;;;;;;3.40;3.03;;;;;;;18.09;100.00;101735.22;4984176;28;20492;-75
2022/06/27 01:46:53;;;;;;;4.73;3.53;;;;;;;17.88;100.00;101703.91;4982084;28;20465;-75
2022/06/27 01:49:19;;;;;;;4.20;3.57;;;;;;;18.04;100.00;101780.16;4982083;28;20543;-76
2022/06/27 01:51:47;;;;;;;4.33;3.30;;;;;;;17.61;100.00;101688.72;4979682;28;20886;-76
2022/06/27 01:54:14;;;;;;;3.00;2.80;;;;;;;17.14;100.00;101641.44;4983495;28;20472;-76
2022/06/27 01:56:41;;;;;;;3.20;2.90;;;;;;;17.84;100.00;101738.81;4984395;28;20949;-76
2022/06/27 01:59:07;;;;;;;3.50;3.23;;;;;;;18.01;100.00;101763.47;4984254;28;20463;-78
2022/06/27 02:01:33;;;;;;;4.03;3.63;;;;;;;17.74;100.00;101714.06;4984323;28;20905;-77
2022/06/27 02:03:59;;;;;;;3.47;3.17;;;;;;;17.37;100.00;101652.47;4983595;28;20635;-75
2022/06/27 02:06:26;;;;;;;3.90;3.60;;;;;;;18.01;100.00;101756.16;4983168;28;20213;-76
2022/06/27 02:08:52;;;;;;;3.73;3.43;;;;;;;17.37;100.00;101663.31;4982764;28;20441;-76
2022/06/27 02:11:19;;;;;;;4.10;3.80;;;;;;;18.00;100.00;101778.94;4986169;28;20444;-76
2022/06/27 02:13:45;;;;;;;3.40;3.10;;;;;;;17.54;100.00;101706.13;4988264;28;20490;-76
2022/06/27 02:16:11;;;;;;;4.70;3.60;;;;;;;18.03;100.00;101769.53;4986840;28;20964;-75
2022/06/27 02:18:38;;;;;;;4.33;3.93;;;;;;;17.95;100.00;101767.94;4990878;28;20670;-76
2022/06/27 02:21:03;;;;;;;4.47;4.10;;;;;;;17.24;100.00;101658.03;4984742;28;20528;-76
2022/06/27 02:23:29;;;;;;;4.37;3.97;;;;;;;17.62;100.00;101731.09;4983203;28;21574;-77
2022/06/27 02:25:56;;;;;;;5.37;4.50;;;;;;;17.27;100.00;101665.72;4988453;28;20214;-76
2022/06/27 02:28:24;;;;;;;4.70;4.30;;;;;;;17.30;100.00;101688.81;4984480;28;20276;-76
2022/06/27 02:30:50;;;;;;;5.97;5.37;;;;;;;17.98;100.00;101780.22;4985210;28;20456;-79
2022/06/27 02:33:15;;;;;;;5.80;5.37;;;;;;;17.97;100.00;101786.72;4988006;28;20489;-77
2022/06/27 02:35:43;;;;;;;5.60;5.20;;;;;;;18.00;100.00;101784.38;4988332;28;20468;-77
2022/06/27 02:38:10;;;;;;;5.10;4.63;;;;;;;17.90;100.00;101775.91;4985867;28;20500;-77
2022/06/27 02:40:37;;;;;;;5.77;5.23;;;;;;;18.01;100.00;101787.91;4986724;28;21015;-77
2022/06/27 02:43:06;;;;;;;5.80;5.20;;;;;;;17.30;100.00;101668.00;4986278;28;20438;-76
2022/06/27 02:45:33;;;;;;;5.83;5.33;;;;;;;17.56;100.00;101699.44;4987924;28;20472;-76
2022/06/27 02:48:01;;;;;;;6.37;5.77;;;;;;;17.24;100.00;101662.59;4985251;28;20503;-77
2022/06/27 02:50:29;;;;;;;4.73;4.40;;;;;;;17.97;100.00;101778.56;4983836;28;20839;-76
2022/06/27 02:52:56;;;;;;;4.67;4.27;;;;;;;17.95;100.00;101778.78;4986923;28;20485;-76
2022/06/27 02:55:31;;;;;;;5.77;5.27;;;;;;;16.92;100.00;101652.69;4985572;28;20879;-77
2022/06/27 02:58:07;;;;;;;4.80;4.40;;;;;;;17.63;100.00;101749.00;4986488;28;20451;-76
2022/06/27 03:00:35;;;;;;;5.03;4.63;;;;;;;17.50;100.00;101710.34;4984589;28;20445;-76
2022/06/27 03:03:03;;;;;;;4.73;4.33;;;;;;;17.13;100.00;101672.31;4987430;28;20475;-76
2022/06/27 03:05:29;;;;;;;3.60;3.33;;;;;;;17.88;100.00;101783.47;4984045;28;20560;-77
2022/06/27 03:07:54;;;;;;;3.30;3.00;;;;;;;17.73;100.00;101767.47;4984779;28;20449;-77
2022/06/27 03:10:21;;;;;;;3.03;2.83;;;;;;;17.64;100.00;101757.97;4985714;28;20198;-76
2022/06/27 03:12:47;;;;;;;3.17;2.87;;;;;;;17.86;100.00;101801.03;4986950;28;20205;-76
2022/06/27 03:15:13;;;;;;;2.63;2.43;;;;;;;17.82;100.00;101792.50;4985937;28;20487;-76
2022/06/27 03:17:38;;;;;;;6.17;2.30;;;;;;;17.27;100.00;101725.38;4986475;28;20186;-76
2022/06/27 03:20:05;;;;;;;3.37;2.47;;;;;;;16.99;100.00;101706.81;4984465;28;20209;-76
2022/06/27 03:22:31;;;;;;;3.20;2.90;;;;;;;16.92;100.00;101695.19;4983053;28;20678;-75
2022/06/27 03:24:56;;;;;;;3.30;2.60;;;;;;;17.41;100.00;101745.03;4987244;28;20463;-76
2022/06/27 03:27:22;;;;;;;2.50;2.30;;;;;;;17.75;100.00;101795.22;4984294;28;20649;-75
2022/06/27 03:29:47;;;;;;;2.53;2.33;;;;;;;17.01;100.00;101674.06;4983425;28;20670;-76
2022/06/27 03:32:13;;;;;;;2.70;2.50;;;;;;;17.77;100.00;101768.72;4986149;28;20193;-75
2022/06/27 03:34:38;;;;;;;2.80;2.60;;;;;;;17.45;100.00;101700.19;4983388;28;20218;-75
2022/06/27 03:37:04;;;;;;;2.40;2.20;;;;;;;17.14;100.00;101649.56;4984331;28;20196;-75
2022/06/27 03:39:29;;;;;;;2.67;2.47;;;;;;;17.36;100.00;101688.78;4982658;28;20204;-75
2022/06/27 03:41:55;;;;;;;3.03;2.57;;;;;;;17.39;100.00;101699.19;4983468;28;20689;-75
2022/06/27 03:44:21;;;;;;;2.93;2.73;;;;;;;17.38;100.00;101685.84;4984238;28;20185;-75
2022/06/27 03:46:47;;;;;;;2.57;2.37;;;;;;;17.75;100.00;101749.09;4985764;28;20214;-75
2022/06/27 03:51:57;;;;;;;2.57;2.37;;;;;;;17.77;100.00;101728.00;4983974;28;20697;-76
2022/06/27 03:54:22;;;;;;;2.13;1.80;;;;;;;17.38;100.00;101664.13;4984768;28;20472;-75
2022/06/27 03:56:48;;;;;;;2.10;1.90;;;;;;;17.34;100.00;101662.94;4988334;28;20256;-75
2022/06/27 03:59:13;;;;;;;2.37;2.20;;;;;;;17.67;100.00;101738.53;4982613;28;20547;-75
2022/06/27 04:01:39;;;;;;;3.70;2.40;;;;;;;17.60;100.00;101762.22;4985458;28;20209;-75
2022/06/27 04:04:05;;;;;;;2.57;2.20;;;;;;;16.74;100.00;101625.47;4987059;28;20205;-76
2022/06/27 04:06:31;;;;;;;4.10;2.50;;;;;;;17.52;100.00;101751.63;4984163;28;20741;-75
2022/06/27 04:08:57;;;;;;;2.60;2.17;;;;;;;16.94;100.00;101628.06;4985453;28;20452;-75
2022/06/27 04:11:23;;;;;;;2.60;2.20;;;;;;;16.82;100.00;101614.41;4985009;28;20449;-76
2022/06/27 04:13:48;;;;;;;2.60;2.40;;;;;;;17.12;100.00;101666.03;4983222;28;20476;-76
2022/06/27 04:16:14;;;;;;;2.87;2.13;;;;;;;16.87;100.00;101613.75;4986853;28;20217;-75
2022/06/27 04:18:39;;;;;;;2.10;1.90;;;;;;;17.38;100.00;101708.34;4985247;28;20185;-75
2022/06/27 04:21:04;;;;;;;2.80;1.83;;;;;;;17.50;100.00;101703.06;4980022;28;20189;-75
2022/06/27 04:23:30;;;;;;;2.83;2.03;;;;;;;17.46;100.00;101736.25;4983288;28;20182;-76
2022/06/27 04:25:55;;;;;;;2.03;1.83;;;;;;;16.91;100.00;101626.63;4983927;28;20224;-76
2022/06/27 04:28:21;;;;;;;3.60;2.60;;;;;;;16.67;100.00;101598.47;4987914;28;20196;-76
2022/06/27 04:30:47;;;;;;;1.80;1.70;;;;;;;17.30;100.00;101694.25;4983149;28;20665;-75
2022/06/27 04:33:13;;;;;;;2.00;1.80;;;;;;;17.70;100.00;101765.22;4983489;28;20292;-75
2022/06/27 04:35:46;;;;;;;2.77;2.40;;;;;;;17.60;100.00;101751.34;4985978;28;20921;-74
2022/06/27 04:38:17;;;;;;;3.00;2.80;;;;;;;17.71;100.00;101760.66;4985124;28;20552;-74
2022/06/27 04:40:43;;;;;;;2.23;2.13;;;;;;;17.11;100.00;101658.16;4984122;28;20433;-75
2022/06/27 04:43:08;;;;;;;2.90;2.70;;;;;;;16.73;100.00;101624.66;4985848;28;20440;-75
2022/06/27 04:45:34;;;;;;;2.60;2.40;;;;;;;17.73;100.00;101764.78;4987575;28;20216;-77
2022/06/27 04:48:00;;;;;;;3.00;2.80;;;;;;;17.45;100.00;101750.88;4988436;28;20254;-77
2022/06/27 04:50:26;;;;;;;3.10;2.90;;;;;;;17.72;100.00;101771.25;4987466;28;20186;-77
2022/06/27 04:52:52;;;;;;;3.33;3.00;;;;;;;17.70;100.00;101775.25;4982476;28;20310;-77
2022/06/27 04:55:18;;;;;;;4.43;3.17;;;;;;;17.50;100.00;101742.88;4984007;28;20937;-75
2022/06/27 04:57:46;;;;;;;3.90;3.60;;;;;;;17.66;100.00;101765.91;4986672;28;20243;-76
2022/06/27 05:00:14;;;;;;;2.73;2.53;;;;;;;16.65;100.00;101622.22;4983301;28;20492;-75
2022/06/27 05:02:40;;;;;;;2.27;2.07;;;;;;;17.58;100.00;101746.13;4983546;28;20842;-76
2022/06/27 05:05:07;;;;;;;2.70;2.10;;;;;;;16.91;100.00;101655.59;4985347;28;20469;-77
2022/06/27 05:07:32;;;;;;;2.00;1.80;;;;;;;16.86;100.00;101640.00;4981708;28;20495;-75
2022/06/27 05:09:58;;;;;;;2.07;1.87;;;;;;;17.52;100.00;101736.19;4980624;28;20949;-75
2022/06/27 05:12:25;;;;;;;2.50;1.97;;;;;;;16.54;100.00;101589.59;4979178;28;20268;-75
2022/06/27 05:14:51;;;;;;;1.80;1.70;;;;;;;17.44;100.00;101733.75;4986469;28;20216;-74
2022/06/27 05:17:17;;;;;;;1.90;1.70;;;;;;;17.38;100.00;101702.94;4985983;28;20810;-74
2022/06/27 05:19:44;;;;;;;1.80;1.50;;;;;;;17.22;100.00;101687.25;4980534;28;20463;-75
2022/06/27 05:22:10;;;;;;;2.10;1.63;;;;;;;16.83;100.00;101632.31;4970875;28;20650;-75
2022/06/27 05:24:36;;;;;;;1.77;1.67;;;;;;;16.78;100.00;101604.22;4979573;28;20464;-75
2022/06/27 05:27:02;;;;;;;2.27;2.07;;;;;;;16.75;100.00;101582.97;4982057;28;20471;-75
2022/06/27 05:29:27;;;;;;;1.73;1.63;;;;;;;17.23;100.00;101637.38;4985174;28;20937;-76
2022/06/27 05:31:53;;;;;;;1.53;1.30;;;;;;;17.31;100.00;101649.84;4986389;28;20178;-77
2022/06/27 05:34:18;;;;;;;2.23;1.70;;;;;;;16.24;100.00;101495.50;4973557;28;20224;-75
2022/06/27 05:36:44;;;;;;;2.10;1.90;;;;;;;16.70;100.00;101603.44;4982384;28;20287;-76
2022/06/27 05:39:10;;;;;;;2.47;1.60;;;;;;;16.69;100.00;101584.69;4986748;28;20288;-75
2022/06/27 05:41:36;;;;;;;2.17;1.97;;;;;;;17.12;100.00;101649.78;4984476;28;20682;-75
2022/06/27 05:44:02;;;;;;;1.80;1.70;;;;;;;16.81;100.00;101585.66;4988456;28;20265;-76
2022/06/27 05:46:28;;;;;;;3.30;2.10;;;;;;;16.92;100.00;101576.81;4991705;28;20498;-77
2022/06/27 05:48:54;;;;;;;3.37;1.80;;;;;;;17.47;100.00;101654.66;4980308;28;20437;-77
2022/06/27 05:51:20;;;;;;;1.83;1.73;;;;;;;17.20;100.00;101618.84;4989898;28;20432;-77
2022/06/27 05:53:49;;;;;;;2.10;1.90;;;;;;;17.00;100.00;101580.28;4988301;28;20225;-77
2022/06/27 05:56:15;;;;;;;2.13;1.57;;;;;;;16.68;100.00;101518.84;4980372;28;20209;-77
2022/06/27 05:58:41;;;;;;;2.23;1.63;;;;;;;16.84;100.00;101558.13;4984840;28;20456;-77
2022/06/27 06:01:09;;;;;;;1.40;1.30;;;;;;;17.53;100.00;101634.78;4974023;28;20532;-77
2022/06/27 06:03:34;;;;;;;2.00;1.50;;;;;;;16.70;100.00;101484.25;4977227;28;20480;-76
2022/06/27 06:06:00;;;;;;;2.37;1.67;;;;;;;17.06;100.00;101526.00;4977232;28;20555;-78
2022/06/27 06:08:26;;;;;;;1.43;1.33;;;;;;;17.05;100.00;101532.47;4979460;28;20577;-78
2022/06/27 06:10:51;;;;;;;1.80;1.70;;;;;;;16.02;100.00;101348.91;4976176;28;20190;-78
2022/06/27 06:13:18;;;;;;;1.87;1.60;;;;;;;16.98;100.00;101539.00;4976122;28;20206;-80
2022/06/27 06:15:45;;;;;;;1.30;1.20;;;;;;;16.73;100.00;101472.13;4977618;28;20281;-78
2022/06/27 06:18:11;;;;;;;1.40;1.30;;;;;;;16.87;100.00;101489.13;4990152;28;20444;-77
2022/06/27 06:20:37;;;;;;;2.27;1.37;;;;;;;17.49;100.00;101598.31;4988241;28;20472;-81
2022/06/27 06:23:03;;;;;;;1.40;1.30;;;;;;;16.94;100.00;101504.22;4978273;28;20726;-81
2022/06/27 06:25:29;;;;;;;1.37;1.27;;;;;;;17.51;100.00;101589.97;4966611;28;20619;-81
2022/06/27 06:28:01;;;;;;;1.40;1.30;;;;;;;16.92;100.00;101473.00;4981067;28;20192;-81
2022/06/27 06:30:29;;;;;;;1.77;1.40;;;;;;;16.78;100.00;101469.63;4985567;28;20181;-80
2022/06/27 06:32:55;;;;;;;1.43;1.30;;;;;;;16.15;100.00;101381.28;4982306;28;20712;-79
2022/06/27 06:35:21;;;;;;;1.23;1.13;;;;;;;17.76;100.00;101622.41;4987652;28;20472;-79
2022/06/27 06:37:46;;;;;;;1.33;1.20;;;;;;;17.47;100.00;101557.00;4974508;28;20456;-79
2022/06/27 06:40:20;;;;;;;2.00;1.67;;;;;;;16.67;100.00;101430.53;4984483;28;20252;-80
2022/06/27 06:42:46;;;;;;;1.70;1.60;;;;;;;16.97;100.00;101488.59;4981717;28;20264;-80
2022/06/27 06:45:12;;;;;;;1.63;1.53;;;;;;;17.37;100.00;101560.28;4979818;28;20477;-79
2022/06/27 06:47:43;;;;;;;2.00;1.57;;;;;;;17.76;100.00;101649.53;4984285;28;20194;-78
2022/06/27 06:50:10;;;;;;;1.30;1.23;;;;;;;17.49;100.00;101573.91;4977663;28;20463;-78
2022/06/27 06:52:39;;;;;;;1.60;1.50;;;;;;;17.79;100.00;101652.69;4983024;28;20521;-78
2022/06/27 06:55:06;;;;;;;1.60;1.50;;;;;;;17.62;100.00;101625.28;4986418;28;20852;-79
2022/06/27 06:57:31;;;;;;;1.97;1.77;;;;;;;17.72;100.00;101654.59;4974269;28;21035;-79
2022/06/27 06:59:57;;;;;;;1.80;1.53;;;;;;;17.91;100.00;101692.63;4979110;28;20536;-78
2022/06/27 07:02:22;;;;;;;1.67;1.50;;;;;;;17.50;100.00;101662.38;4974408;28;20251;-78
2022/06/27 07:04:47;;;;;;;2.10;1.90;;;;;;;17.67;100.00;101705.97;4979432;28;20184;-77
2022/06/27 07:07:14;;;;;;;3.10;1.90;;;;;;;17.70;100.00;101697.41;4986064;28;20194;-77
2022/06/27 07:09:39;;;;;;;1.70;1.60;;;;;;;17.58;100.00;101653.91;4977964;28;20235;-78
2022/06/27 07:12:05;;;;;;;2.80;2.10;;;;;;;17.34;100.00;101620.38;4983630;28;20445;-78
2022/06/27 07:14:31;;;;;;;2.17;2.00;;;;;;;17.08;100.00;101610.63;4982295;28;20564;-78
2022/06/27 07:16:56;;;;;;;2.83;2.40;;;;;;;17.20;100.00;101624.28;4985008;28;21027;-78
2022/06/27 07:19:22;;;;;;;4.47;2.30;;;;;;;17.59;100.00;101647.44;4986886;28;20244;-78
2022/06/27 07:21:47;;;;;;;2.97;2.63;;;;;;;17.59;100.00;101633.06;4983739;28;20186;-78
2022/06/27 07:24:12;;;;;;;3.20;2.57;;;;;;;17.46;100.00;101641.34;4982455;28;20186;-79
2022/06/27 07:26:38;;;;;;;3.77;2.90;;;;;;;17.31;100.00;101642.53;4973304;28;20301;-79
2022/06/27 07:29:05;;;;;;;3.50;2.80;;;;;;;17.12;100.00;101579.31;4974980;28;20193;-79
2022/06/27 07:31:32;;;;;;;2.60;2.40;;;;;;;18.01;100.00;101711.91;4986739;28;20201;-78
2022/06/27 07:33:59;;;;;;;3.33;2.33;;;;;;;17.84;100.00;101723.34;4980942;28;20476;-79
2022/06/27 07:36:28;;;;;;;3.13;2.67;;;;;;;17.26;100.00;101636.94;4978956;28;20460;-79
2022/06/27 07:38:55;;;;;;;2.90;2.43;;;;;;;17.18;100.00;101639.94;4978553;28;20448;-79
2022/06/27 07:41:22;;;;;;;5.70;3.43;;;;;;;17.81;100.00;101733.84;4978376;28;20502;-79
2022/06/27 07:43:49;;;;;;;3.10;2.80;;;;;;;16.85;100.00;101584.16;4980778;28;20527;-79
2022/06/27 07:46:17;;;;;;;5.80;3.03;;;;;;;17.80;100.00;101727.59;4975509;28;20556;-80
2022/06/27 07:48:44;;;;;;;2.87;2.67;;;;;;;16.61;100.00;101547.06;4979188;28;20901;-79
2022/06/27 07:51:14;;;;;;;3.40;2.93;;;;;;;17.46;100.00;101668.44;4982175;28;25775;-79
2022/06/27 07:53:39;;;;;;;4.03;3.17;;;;;;;17.66;100.00;101681.81;4970232;28;20527;-80
2022/06/27 07:56:06;;;;;;;5.40;3.00;;;;;;;17.50;100.00;101675.94;4980486;28;20536;-80
2022/06/27 07:58:35;;;;;;;4.57;3.33;;;;;;;17.38;100.00;101691.25;4958328;28;20197;-80
2022/06/27 08:01:07;;;;;;;4.50;3.30;;;;;;;17.68;100.00;101709.56;4975230;28;20433;-80
2022/06/27 08:03:36;;;;;;;4.67;3.23;;;;;;;17.52;100.00;101681.94;4975329;28;20440;-80
2022/06/27 08:06:04;;;;;;;5.87;3.03;;;;;;;17.85;100.00;101740.50;4977687;28;20458;-79
2022/06/27 08:08:32;;;;;;;4.73;2.60;;;;;;;17.85;100.00;101737.78;4977043;28;20448;-80
2022/06/27 08:10:57;;;;;;;4.50;2.70;;;;;;;17.52;100.00;101675.69;4969865;28;20447;-80
2022/06/27 08:13:24;;;;;;;3.50;2.40;;;;;;;17.46;100.00;101687.44;4979416;28;20546;-80
2022/06/27 08:15:50;;;;;;;4.07;2.90;;;;;;;17.82;100.00;101722.78;4979829;28;21057;-80
2022/06/27 08:18:16;;;;;;;3.57;2.90;;;;;;;17.87;100.00;101749.22;4974845;28;20519;-81
2022/06/27 08:20:42;;;;;;;4.87;3.37;;;;;;;16.93;100.00;101597.44;4982380;28;20449;-81
2022/06/27 08:23:09;;;;;;;4.60;2.40;;;;;;;17.52;100.00;101676.50;4982395;28;20922;-80
2022/06/27 08:25:35;;;;;;;5.43;3.13;;;;;;;17.41;100.00;101666.41;4983817;28;20563;-79
2022/06/27 08:28:01;;;;;;;5.60;3.33;;;;;;;17.87;100.00;101726.69;4980413;28;20449;-80
2022/06/27 08:30:27;;;;;;;3.93;2.57;;;;;;;17.48;100.00;101660.94;4982186;28;20953;-80
2022/06/27 08:32:58;;;;;;;3.87;2.90;;;;;;;17.89;100.00;101724.59;4980187;28;20313;-80
2022/06/27 08:35:24;;;;;;;3.50;3.20;;;;;;;17.94;100.00;101717.44;4981798;28;21336;-80
2022/06/27 08:37:52;;;;;;;4.20;3.00;;;;;;;17.64;100.00;101682.03;4978869;28;21297;-80
2022/06/27 08:40:20;;;;;;;4.70;3.70;;;;;;;17.88;100.00;101733.75;4981798;28;20453;-80
2022/06/27 08:42:45;;;;;;;4.27;3.40;;;;;;;17.26;100.00;101634.22;4984974;28;20444;-81
2022/06/27 08:45:15;;;;;;;5.23;3.90;;;;;;;17.88;100.00;101731.91;4979742;28;20949;-81
2022/06/27 08:47:41;;;;;;;3.53;3.17;;;;;;;17.16;100.00;101618.47;4980010;28;20445;-80
2022/06/27 08:50:08;;;;;;;5.00;3.70;;;;;;;17.08;100.00;101597.06;4971081;28;20445;-81
2022/06/27 08:52:39;;;;;;;3.97;2.97;;;;;;;17.23;100.00;101599.44;4970988;28;20448;-80
2022/06/27 08:55:07;;;;;;;5.90;4.17;;;;;;;17.55;100.00;101659.78;4990576;28;20524;-81
2022/06/27 08:57:32;;;;;;;4.10;3.17;;;;;;;17.50;100.00;101675.06;4979498;28;20448;-83
2022/06/27 08:59:58;;;;;;;3.83;2.60;;;;;;;17.74;100.00;101685.06;4968384;28;20854;-80
2022/06/27 09:02:26;;;;;;;3.70;3.17;;;;;;;17.78;100.00;101680.03;4980939;28;20264;-76
2022/06/27 09:04:57;;;;;;;3.40;3.10;;;;;;;17.95;100.00;101707.41;4976035;28;20823;-79
2022/06/27 09:07:23;;;;;;;3.70;3.00;;;;;;;17.94;100.00;101719.31;4971854;28;20445;-73
2022/06/27 09:09:49;;;;;;;2.70;2.50;;;;;;;17.83;100.00;101681.00;4973597;28;20453;-76
2022/06/27 09:12:15;;;;;;;6.47;3.53;;;;;;;17.01;100.00;101560.25;4972372;28;20553;-78
2022/06/27 09:14:42;;;;;;;5.00;3.03;;;;;;;17.55;100.00;101667.09;4971876;28;20588;-78
2022/06/27 09:17:15;;;;;;;5.37;3.47;;;;;;;17.51;100.00;101668.63;4973933;28;20229;-76
2022/06/27 09:19:54;;;;;;;3.97;2.77;;;;;;;17.78;100.00;101739.72;4980980;28;20432;-76
2022/06/27 09:22:26;;;;;;;3.50;2.87;;;;;;;17.87;100.00;101756.53;4981395;28;20950;-79
2022/06/27 09:25:01;;;;;;;4.23;3.27;;;;;;;17.80;100.00;101743.88;4972031;28;20448;-77
2022/06/27 09:27:44;;;;;;;3.57;3.10;;;;;;;17.14;100.00;101657.69;4976674;28;20960;-77
2022/06/27 09:30:22;;;;;;;5.23;3.23;;;;;;;17.86;100.00;101754.91;4974654;28;21359;-76
2022/06/27 09:32:55;;;;;;;2.83;2.60;;;;;;;17.09;100.00;101643.97;4981926;28;20457;-77
2022/06/27 09:35:28;;;;;;;3.87;3.00;;;;;;;17.73;100.00;101763.94;4983711;28;20465;-77
2022/06/27 09:37:57;;;;;;;3.17;2.87;;;;;;;17.68;100.00;101737.50;4982825;28;20421;-78
2022/06/27 09:40:24;;;;;;;2.73;2.53;;;;;;;17.77;100.00;101743.47;4987167;28;20660;-78
2022/06/27 09:42:55;;;;;;;2.77;2.53;;;;;;;17.82;100.00;101776.22;4984867;28;20480;-78
2022/06/27 09:45:24;;;;;;;3.77;2.80;;;;;;;17.65;100.00;101751.53;4982230;28;20500;-77
2022/06/27 09:47:58;;;;;;;3.20;2.60;;;;;;;16.94;100.00;101647.84;4975390;28;20572;-78
2022/06/27 09:50:26;;;;;;;3.87;3.20;;;;;;;17.61;100.00;101748.41;4993408;28;20436;-77
2022/06/27 09:52:51;;;;;;;3.10;2.80;;;;;;;17.61;100.00;101759.25;4985574;28;20867;-78
2022/06/27 09:55:21;;;;;;;3.53;2.70;;;;;;;17.84;100.00;101787.66;4989759;28;20468;-78
2022/06/27 09:57:47;;;;;;;4.57;2.83;;;;;;;17.59;100.00;101747.00;5004061;28;20212;-77
2022/06/27 10:00:13;;;;;;;3.37;2.97;;;;;;;17.81;100.00;101815.25;4990441;28;20886;-77
2022/06/27 10:02:39;;;;;;;3.53;2.77;;;;;;;17.70;100.00;101827.63;4989629;28;20185;-78
2022/06/27 10:05:05;;;;;;;4.17;3.10;;;;;;;17.23;100.00;101775.66;4990315;28;20478;-77
2022/06/27 10:07:31;;;;;;;3.47;3.17;;;;;;;17.60;100.00;101840.88;4988653;28;20821;-77
2022/06/27 10:09:57;;;;;;;4.20;3.33;;;;;;;17.78;100.00;101843.66;4990973;28;20444;-77
2022/06/27 10:12:22;;;;;;;3.50;2.80;;;;;;;17.86;100.00;101842.56;4990773;28;20865;-77
2022/06/27 10:15:09;;;;;;;4.60;3.47;;;;;;;17.57;100.00;101847.56;4991173;28;20205;-77
2022/06/27 10:17:41;;;;;;;3.80;3.23;;;;;;;17.56;100.00;101854.06;4994458;28;20617;-77
2022/06/27 10:20:12;;;;;;;3.90;3.07;;;;;;;17.52;100.00;101828.41;4992092;28;20443;-75
2022/06/27 10:22:41;;;;;;;3.00;2.70;;;;;;;17.31;100.00;101788.13;4989942;28;20574;-76
2022/06/27 10:25:25;;;;;;;3.20;2.90;;;;;;;17.55;100.00;101855.09;4993274;28;20452;-76
2022/06/27 10:28:16;;;;;;;3.10;2.70;;;;;;;17.37;100.00;101809.75;5007875;28;20432;-77
2022/06/27 10:30:49;;;;;;;3.60;3.20;;;;;;;17.73;100.00;101857.03;4989092;28;20822;-76
2022/06/27 10:33:26;;;;;;;3.90;3.43;;;;;;;17.71;100.00;101864.56;5001696;28;20465;-77
2022/06/27 10:36:10;;;;;;;2.87;2.63;;;;;;;17.76;100.00;101856.63;4989338;28;20468;-76
2022/06/27 10:38:38;;;;;;;5.07;3.50;;;;;;;17.82;100.00;101853.03;4987681;28;20495;-77
2022/06/27 10:41:31;;;;;;;6.57;3.40;;;;;;;17.60;100.00;101792.88;4982104;28;20974;-77
2022/06/27 10:43:59;;;;;;;3.93;3.27;;;;;;;17.90;100.00;101807.66;4985731;28;20532;-77
2022/06/27 10:46:24;;;;;;;3.80;3.37;;;;;;;18.00;100.00;101811.53;4974493;28;20801;-77
2022/06/27 10:48:57;;;;;;;4.97;3.10;;;;;;;17.86;100.00;101833.59;4981984;28;20471;-77
2022/06/27 10:51:26;;;;;;;3.00;2.50;;;;;;;17.92;100.00;101840.84;4980284;28;20170;-78
2022/06/27 10:54:04;;;;;;;4.00;3.10;;;;;;;17.84;100.00;101839.22;4983459;28;20480;-77
2022/06/27 10:56:30;;;;;;;3.57;3.00;;;;;;;17.51;100.00;101760.84;4978625;28;20837;-78
2022/06/27 10:59:00;;;;;;;6.47;2.90;;;;;;;17.07;100.00;101703.84;4986256;28;20460;-79
2022/06/27 11:01:26;;;;;;;6.23;2.87;;;;;;;17.80;100.00;101798.16;4984699;28;20585;-77
2022/06/27 11:03:51;;;;;;;4.10;2.57;;;;;;;17.29;100.00;101735.97;4984791;28;20941;-79
2022/06/27 11:06:17;;;;;;;3.00;2.67;;;;;;;17.92;100.00;101819.94;4980603;28;20523;-78
2022/06/27 11:08:48;;;;;;;4.07;2.50;;;;;;;17.89;100.00;101811.44;4993220;28;20209;-79
2022/06/27 11:11:19;;;;;;;3.60;2.30;;;;;;;17.62;100.00;101736.53;4979468;28;20765;-77
2022/06/27 11:13:54;;;;;;;4.00;2.70;;;;;;;18.07;100.00;101808.72;4972988;28;20487;-77
2022/06/27 11:16:31;;;;;;;4.40;2.70;;;;;;;17.87;100.00;101802.69;4978998;28;20533;-77
2022/06/27 11:19:02;;;;;;;3.53;2.70;;;;;;;17.73;100.00;101751.22;4987998;28;20468;-77
2022/06/27 11:21:35;;;;;;;3.20;2.53;;;;;;;18.17;100.00;101814.47;4982470;28;20500;-77